Terminal Aerodrome Forecast
Issued by NWS North Platte, NE

Home | Current Version | Previous Version | Text Only | Print | Product List | Glossary Off
Versions: 1 2 3 4 5 6 7 8 9 10 11 12 13 14 15 16 17 18 19 20

863
FTUS43 KLBF 241801 RRA
TAFVTN
TAF
KVTN 241801Z 2418/2518 32016G22KT P6SM SCT023 BKN150
      TEMPO 2418/2421 BKN025
     FM242300 35011KT P6SM SCT200
     FM250200 02008KT P6SM BKN200
     FM250600 04008KT P6SM VCSH BKN100
     FM250900 03009KT P6SM SHRA OVC035
     FM251200 02010KT P6SM RA OVC008
     FM251300 02011KT 6SM RA OVC003
     FM251500 01012KT 4SM RA OVC008
     FM251600 01012G18KT 3SM RA OVC008=

USA.gov is the U.S. government's official web portal to all federal, state and local government web resources and services.